Time;durP1;ratioP1;P1;durP2;ratioP2;P2;SDS_P1;SDS_P2;PMS_P1;PMS_P2;Temp;Humidity;BMP_temperature;BMP_pressure;BME280_temperature;BME280_humidity;BME280_pressure;Samples;Min_cycle;Max_cycle;Signal;HPM_P1;HPM_P2
2023/10/24 00:01:01;;;;;;;11.90;9.23;;;;;;;11.53;100.00;99938.06;5005457;28;20274;-80
2023/10/24 00:03:28;;;;;;;11.43;9.43;;;;;;;11.54;100.00;99938.94;5016821;28;20222;-81
2023/10/24 00:05:54;;;;;;;10.77;9.40;;;;;;;11.52;100.00;99939.03;5004368;28;20208;-80
2023/10/24 00:08:21;;;;;;;9.73;8.63;;;;;;;11.49;100.00;99924.13;5003126;28;20205;-80
2023/10/24 00:10:47;;;;;;;10.30;9.20;;;;;;;11.49;100.00;99933.94;5001436;28;20215;-80
2023/10/24 00:13:13;;;;;;;10.37;8.70;;;;;;;11.49;100.00;99924.13;5001224;28;20224;-80
2023/10/24 00:15:41;;;;;;;10.63;8.87;;;;;;;11.51;100.00;99925.81;5001385;28;20200;-80
2023/10/24 00:18:08;;;;;;;14.57;9.70;;;;;;;11.51;100.00;99929.34;4999306;28;20203;-81
2023/10/24 00:20:34;;;;;;;11.97;9.43;;;;;;;11.51;100.00;99926.69;5002310;28;20214;-81
2023/10/24 00:23:01;;;;;;;10.90;8.90;;;;;;;11.50;100.00;99916.97;5006796;28;20234;-80
2023/10/24 00:25:27;;;;;;;10.87;9.37;;;;;;;11.49;100.00;99913.47;5008272;28;20214;-79
2023/10/24 00:27:53;;;;;;;13.27;9.23;;;;;;;11.53;100.00;99914.06;5002147;28;20222;-80
2023/10/24 00:30:20;;;;;;;10.60;9.00;;;;;;;11.51;100.00;99908.00;5005679;28;20207;-80
2023/10/24 00:32:49;;;;;;;10.30;9.23;;;;;;;11.51;100.00;99901.81;5003961;28;20226;-80
2023/10/24 00:35:16;;;;;;;12.20;9.03;;;;;;;11.49;100.00;99885.94;5001511;28;20305;-80
2023/10/24 00:37:43;;;;;;;11.60;9.73;;;;;;;11.46;100.00;99886.22;5011119;28;20203;-80
2023/10/24 00:40:11;;;;;;;10.33;9.03;;;;;;;11.45;100.00;99885.38;5009689;28;20686;-80
2023/10/24 00:42:37;;;;;;;9.83;8.83;;;;;;;11.45;100.00;99884.53;5003368;28;20217;-80
2023/10/24 00:45:04;;;;;;;10.37;9.20;;;;;;;11.44;100.00;99880.16;5000625;28;20211;-81
2023/10/24 00:47:31;;;;;;;11.93;8.30;;;;;;;11.39;100.00;99872.50;4999966;28;20753;-80
2023/10/24 00:50:00;;;;;;;11.00;8.50;;;;;;;11.40;100.00;99865.38;5007161;28;20210;-81
2023/10/24 00:52:27;;;;;;;9.23;8.10;;;;;;;11.40;100.00;99862.69;5001324;28;20225;-80
2023/10/24 00:54:53;;;;;;;11.03;9.43;;;;;;;11.39;100.00;99858.34;5006324;28;20213;-80
2023/10/24 00:57:20;;;;;;;10.70;8.90;;;;;;;11.41;100.00;99851.91;5001325;28;20211;-80
2023/10/24 00:59:47;;;;;;;9.93;8.30;;;;;;;11.38;100.00;99843.31;5002633;28;20215;-80
2023/10/24 01:02:13;;;;;;;10.53;9.20;;;;;;;11.41;100.00;99845.72;4999680;28;20213;-80
2023/10/24 01:04:40;;;;;;;9.50;8.50;;;;;;;11.40;100.00;99836.88;5019229;28;20738;-80
2023/10/24 01:07:08;;;;;;;9.63;7.93;;;;;;;11.41;100.00;99849.25;5006403;28;20243;-80
2023/10/24 01:09:34;;;;;;;9.40;8.40;;;;;;;11.43;100.00;99860.63;5003771;28;20203;-80
2023/10/24 01:12:01;;;;;;;10.40;8.47;;;;;;;11.44;100.00;99853.50;4997458;28;20250;-80
2023/10/24 01:14:28;;;;;;;10.73;9.60;;;;;;;11.45;100.00;99857.84;5014916;28;21483;-80
2023/10/24 01:16:54;;;;;;;10.10;9.10;;;;;;;11.46;100.00;99854.22;5010298;28;20565;-80
2023/10/24 01:19:21;;;;;;;10.03;8.83;;;;;;;11.48;100.00;99855.75;5002686;28;20214;-80
2023/10/24 01:21:49;;;;;;;10.77;8.80;;;;;;;11.47;100.00;99856.72;5004197;28;20203;-80
2023/10/24 01:24:17;;;;;;;10.13;9.03;;;;;;;11.44;100.00;99857.00;5005272;28;20236;-80
2023/10/24 01:26:44;;;;;;;10.80;9.27;;;;;;;11.45;100.00;99857.84;4995943;28;20238;-80
2023/10/24 01:29:11;;;;;;;12.13;8.60;;;;;;;11.42;100.00;99856.28;5008501;28;20236;-80
2023/10/24 01:31:38;;;;;;;10.13;7.90;;;;;;;11.44;100.00;99853.50;5019089;28;20198;-80
2023/10/24 01:34:04;;;;;;;9.50;8.47;;;;;;;11.44;100.00;99846.34;5018338;28;20257;-80
2023/10/24 01:36:31;;;;;;;9.50;8.50;;;;;;;11.43;100.00;99841.97;4996032;28;20217;-81
2023/10/24 01:38:59;;;;;;;10.10;8.27;;;;;;;11.44;100.00;99851.66;4996735;28;20217;-80
2023/10/24 01:41:25;;;;;;;11.50;8.57;;;;;;;11.45;100.00;99848.03;5001714;28;20216;-81
2023/10/24 01:43:53;;;;;;;9.43;8.40;;;;;;;11.44;100.00;99837.50;5000190;28;20597;-80
2023/10/24 01:46:19;;;;;;;9.67;8.57;;;;;;;11.45;100.00;99847.19;5004565;28;20202;-81
2023/10/24 01:48:46;;;;;;;11.63;8.40;;;;;;;11.45;100.00;99845.38;5001042;28;20240;-81
2023/10/24 01:51:12;;;;;;;11.07;8.70;;;;;;;11.44;100.00;99829.50;4999660;28;20226;-80
2023/10/24 01:53:39;;;;;;;9.70;8.70;;;;;;;11.42;100.00;99834.09;5001702;28;20586;-81
2023/10/24 01:56:06;;;;;;;9.47;8.50;;;;;;;11.40;100.00;99844.03;5002196;28;20663;-81
2023/10/24 01:58:33;;;;;;;10.37;9.27;;;;;;;11.41;100.00;99837.72;5004173;28;20210;-81
2023/10/24 02:01:00;;;;;;;10.00;9.03;;;;;;;11.43;100.00;99835.78;5004621;28;20221;-81
2023/10/24 02:03:26;;;;;;;10.50;9.03;;;;;;;11.41;100.00;99827.91;5001705;28;20282;-81
2023/10/24 02:05:52;;;;;;;12.70;9.03;;;;;;;11.41;100.00;99830.59;5003405;28;20210;-82
2023/10/24 02:08:19;;;;;;;11.67;9.07;;;;;;;11.41;100.00;99835.06;5006228;28;20228;-82
2023/10/24 02:10:45;;;;;;;9.27;8.37;;;;;;;11.40;100.00;99836.88;5002455;28;20234;-82
2023/10/24 02:13:13;;;;;;;9.57;8.13;;;;;;;11.41;100.00;99827.06;5011267;28;20238;-81
2023/10/24 02:15:40;;;;;;;9.50;8.60;;;;;;;11.39;100.00;99819.19;5005601;28;20210;-81
2023/10/24 02:18:06;;;;;;;10.30;9.23;;;;;;;11.40;100.00;99822.69;5001330;28;20211;-81
2023/10/24 02:20:33;;;;;;;10.50;8.63;;;;;;;11.41;100.00;99819.06;5003186;28;21388;-81
2023/10/24 02:22:59;;;;;;;11.43;9.60;;;;;;;11.41;100.00;99819.91;5005405;28;20567;-81
2023/10/24 02:25:26;;;;;;;11.10;9.40;;;;;;;11.40;100.00;99818.22;5004845;28;20223;-80
2023/10/24 02:27:53;;;;;;;14.53;8.83;;;;;;;11.43;100.00;99819.78;4999416;28;20242;-81
2023/10/24 02:30:21;;;;;;;12.03;9.27;;;;;;;11.43;100.00;99817.13;5002119;28;20264;-81
2023/10/24 02:32:48;;;;;;;14.63;10.10;;;;;;;11.41;100.00;99800.41;5010803;28;20764;-81
2023/10/24 02:35:16;;;;;;;10.17;8.80;;;;;;;11.40;100.00;99796.88;5002958;28;20215;-81
2023/10/24 02:37:42;;;;;;;12.30;9.00;;;;;;;11.40;100.00;99785.38;5001281;28;20203;-80
2023/10/24 02:40:10;;;;;;;10.87;8.70;;;;;;;11.38;100.00;99785.50;4997500;28;20687;-80
2023/10/24 02:42:36;;;;;;;9.90;8.43;;;;;;;11.37;100.00;99785.63;4997431;28;20213;-80
2023/10/24 02:45:03;;;;;;;9.43;8.30;;;;;;;11.35;100.00;99774.22;4997808;28;20215;-81
2023/10/24 02:47:31;;;;;;;11.73;8.80;;;;;;;11.33;100.00;99770.84;5000414;28;20691;-81
2023/10/24 02:49:57;;;;;;;10.37;8.70;;;;;;;11.30;100.00;99768.41;5000717;28;20804;-81
2023/10/24 02:52:23;;;;;;;9.93;8.50;;;;;;;11.28;100.00;99762.38;5005857;28;20703;-80
2023/10/24 02:54:50;;;;;;;11.00;8.83;;;;;;;11.26;100.00;99748.31;4997127;28;20419;-80
2023/10/24 02:57:17;;;;;;;10.13;8.87;;;;;;;11.20;100.00;99746.16;5002150;28;20206;-80
2023/10/24 02:59:43;;;;;;;13.50;8.93;;;;;;;11.17;100.00;99741.06;5001494;28;20206;-80
2023/10/24 03:02:10;;;;;;;9.47;8.40;;;;;;;11.10;100.00;99733.56;5005240;28;20596;-81
2023/10/24 03:04:38;;;;;;;9.83;8.47;;;;;;;11.09;100.00;99739.03;4999071;28;20260;-80
2023/10/24 03:07:04;;;;;;;11.17;8.17;;;;;;;11.08;100.00;99738.16;5005687;28;20210;-80
2023/10/24 03:09:31;;;;;;;9.03;8.13;;;;;;;11.05;100.00;99737.56;4998800;28;20207;-81
2023/10/24 03:11:57;;;;;;;10.13;7.90;;;;;;;11.04;100.00;99749.19;5007382;28;20207;-80
2023/10/24 03:14:24;;;;;;;10.63;7.90;;;;;;;11.03;100.00;99744.81;4999975;28;20698;-81
2023/10/24 03:16:50;;;;;;;8.80;7.90;;;;;;;11.01;100.00;99755.59;4996352;28;20211;-80
2023/10/24 03:19:17;;;;;;;9.73;8.00;;;;;;;11.00;100.00;99743.25;5002291;28;20210;-80
2023/10/24 03:21:45;;;;;;;10.87;9.10;;;;;;;10.99;100.00;99722.91;5001555;28;20607;-80
2023/10/24 03:24:11;;;;;;;10.47;8.00;;;;;;;11.00;100.00;99735.25;5009257;28;20238;-80
2023/10/24 03:26:38;;;;;;;11.03;7.93;;;;;;;10.98;100.00;99731.84;5021878;28;20206;-80
2023/10/24 03:29:04;;;;;;;9.57;7.70;;;;;;;10.96;100.00;99733.78;5009479;28;20606;-80
2023/10/24 03:31:31;;;;;;;8.67;7.43;;;;;;;10.95;100.00;99733.91;5003814;28;20216;-80
2023/10/24 03:33:57;;;;;;;8.57;6.83;;;;;;;10.94;100.00;99725.06;4993976;28;20257;-80
2023/10/24 03:36:24;;;;;;;8.53;7.20;;;;;;;10.95;100.00;99713.44;5027696;28;20559;-80
2023/10/24 03:38:51;;;;;;;9.33;7.90;;;;;;;10.95;100.00;99731.25;5002699;28;20199;-79
2023/10/24 03:41:18;;;;;;;9.50;6.87;;;;;;;10.93;100.00;99722.53;5001551;28;20217;-79
2023/10/24 03:43:48;;;;;;;8.03;6.57;;;;;;;10.94;100.00;99716.22;5002162;28;20232;-79
2023/10/24 03:46:14;;;;;;;8.73;6.90;;;;;;;10.95;100.00;99725.91;4998517;28;20214;-80
2023/10/24 03:48:41;;;;;;;9.60;6.50;;;;;;;10.93;100.00;99734.03;5004448;28;20230;-79
2023/10/24 03:51:06;;;;;;;12.90;7.37;;;;;;;10.95;100.00;99726.78;5002556;28;20685;-80
2023/10/24 03:53:33;;;;;;;8.30;6.57;;;;;;;10.92;100.00;99721.72;4999432;28;20321;-80
2023/10/24 03:56:01;;;;;;;9.53;6.60;;;;;;;10.91;100.00;99724.50;5004867;28;20213;-80
2023/10/24 03:58:29;;;;;;;11.80;7.37;;;;;;;10.88;100.00;99720.25;5004123;28;20216;-80
2023/10/24 04:00:55;;;;;;;11.10;7.00;;;;;;;10.89;100.00;99726.44;5004511;28;20293;-80
2023/10/24 04:03:22;;;;;;;11.57;6.93;;;;;;;10.85;100.00;99736.47;5015372;28;20602;-80
2023/10/24 04:05:48;;;;;;;9.93;6.87;;;;;;;10.84;100.00;99745.44;4998043;28;20210;-80
2023/10/24 04:08:15;;;;;;;10.50;7.10;;;;;;;10.84;100.00;99740.09;4999000;28;20319;-80
2023/10/24 04:10:41;;;;;;;8.83;7.07;;;;;;;10.82;100.00;99742.03;5008063;28;20211;-80
2023/10/24 04:13:09;;;;;;;9.47;6.93;;;;;;;10.82;100.00;99750.03;5005303;28;20235;-80
2023/10/24 04:15:36;;;;;;;8.20;6.73;;;;;;;10.82;100.00;99743.84;5006142;28;20223;-80
2023/10/24 04:18:03;;;;;;;8.23;6.97;;;;;;;10.83;100.00;99753.53;5004093;28;20207;-80
2023/10/24 04:20:30;;;;;;;8.43;6.20;;;;;;;10.85;100.00;99756.94;5005801;28;20622;-80
2023/10/24 04:23:00;;;;;;;8.73;6.73;;;;;;;10.86;100.00;99750.66;5006705;28;20223;-81
2023/10/24 04:25:29;;;;;;;8.43;6.73;;;;;;;10.87;100.00;99750.53;5001771;28;20206;-80
2023/10/24 04:27:56;;;;;;;8.57;7.67;;;;;;;10.87;100.00;99749.69;5001979;28;20230;-79
2023/10/24 04:30:24;;;;;;;8.30;7.27;;;;;;;10.88;100.00;99736.25;5007554;28;20232;-79
2023/10/24 04:32:50;;;;;;;10.03;8.13;;;;;;;10.87;100.00;99734.53;4999069;28;20685;-80
2023/10/24 04:35:17;;;;;;;8.97;7.00;;;;;;;10.91;100.00;99751.13;5002664;28;20259;-80
2023/10/24 04:37:46;;;;;;;10.57;7.67;;;;;;;10.91;100.00;99744.00;5002096;28;20211;-80
2023/10/24 04:40:12;;;;;;;8.53;7.03;;;;;;;10.92;100.00;99727.03;5009524;28;20215;-81
2023/10/24 04:42:39;;;;;;;7.73;6.30;;;;;;;10.93;100.00;99733.19;5004056;28;20217;-80
2023/10/24 04:45:07;;;;;;;6.40;5.47;;;;;;;10.94;100.00;99725.06;5004116;28;20207;-80
2023/10/24 04:47:34;;;;;;;5.57;4.57;;;;;;;10.96;100.00;99727.63;5004960;28;20208;-80
2023/10/24 04:50:01;;;;;;;6.70;5.30;;;;;;;10.97;100.00;99716.84;5007174;28;20218;-81
2023/10/24 04:52:27;;;;;;;7.30;5.07;;;;;;;11.01;100.00;99717.44;5005020;28;20686;-80
2023/10/24 04:54:54;;;;;;;6.63;5.20;;;;;;;10.99;100.00;99720.25;5003235;28;20825;-81
2023/10/24 04:57:20;;;;;;;8.30;5.37;;;;;;;10.97;100.00;99716.84;5001577;28;20686;-80
2023/10/24 04:59:47;;;;;;;9.50;5.20;;;;;;;10.98;100.00;99713.22;5001207;28;20203;-80
2023/10/24 05:02:13;;;;;;;5.43;4.93;;;;;;;11.03;100.00;99713.69;5007018;28;20213;-81
2023/10/24 05:04:41;;;;;;;6.43;4.40;;;;;;;11.04;100.00;99723.38;5005723;28;20223;-80
2023/10/24 05:07:08;;;;;;;7.63;4.73;;;;;;;11.03;100.00;99719.03;5001207;28;20222;-81
2023/10/24 05:09:34;;;;;;;3.87;3.47;;;;;;;11.06;100.00;99707.28;5004131;28;20221;-80
2023/10/24 05:12:01;;;;;;;4.83;4.30;;;;;;;11.07;100.00;99709.81;5005318;28;20215;-81
2023/10/24 05:14:27;;;;;;;5.47;3.83;;;;;;;11.08;100.00;99698.19;5003480;28;20621;-80
2023/10/24 05:16:54;;;;;;;7.97;3.70;;;;;;;11.10;100.00;99696.25;5005981;28;20244;-80
2023/10/24 05:19:20;;;;;;;6.07;3.80;;;;;;;11.10;100.00;99698.09;5006433;28;20212;-80
2023/10/24 05:21:48;;;;;;;4.83;3.53;;;;;;;11.10;100.00;99696.25;5005858;28;20206;-80
2023/10/24 05:24:15;;;;;;;5.50;3.87;;;;;;;11.09;100.00;99699.03;5004085;28;20743;-80
2023/10/24 05:26:41;;;;;;;6.00;4.07;;;;;;;11.11;100.00;99692.59;5013021;28;20215;-81
2023/10/24 05:29:07;;;;;;;8.50;4.60;;;;;;;11.11;100.00;99689.09;5009630;28;20227;-81
2023/10/24 05:31:34;;;;;;;6.93;4.60;;;;;;;11.08;100.00;99684.88;5006359;28;20214;-81
2023/10/24 05:34:00;;;;;;;6.90;4.30;;;;;;;11.05;100.00;99693.13;5004286;28;20224;-81
2023/10/24 05:36:27;;;;;;;9.07;4.27;;;;;;;11.03;100.00;99694.19;5014152;28;20207;-81
2023/10/24 05:38:55;;;;;;;4.27;3.73;;;;;;;11.03;100.00;99688.88;5006471;28;20634;-81
2023/10/24 05:41:22;;;;;;;5.47;3.80;;;;;;;11.03;100.00;99688.88;5004444;28;20222;-81
2023/10/24 05:43:49;;;;;;;4.23;3.83;;;;;;;11.03;100.00;99686.22;5001391;28;20936;-81
2023/10/24 05:46:15;;;;;;;4.30;3.47;;;;;;;11.03;100.00;99686.22;5008276;28;20294;-81
2023/10/24 05:48:41;;;;;;;4.53;3.33;;;;;;;11.02;100.00;99680.03;5002112;28;20218;-81
2023/10/24 05:51:09;;;;;;;4.47;3.70;;;;;;;11.04;100.00;99690.56;5009976;28;20234;-81
2023/10/24 05:53:35;;;;;;;6.77;3.83;;;;;;;11.02;100.00;99698.69;5002960;28;20270;-81
2023/10/24 05:56:04;;;;;;;6.80;4.10;;;;;;;11.01;100.00;99691.66;5000432;28;20214;-81
2023/10/24 05:58:30;;;;;;;7.27;3.90;;;;;;;11.02;100.00;99695.16;5006291;28;20713;-80
2023/10/24 06:00:57;;;;;;;5.77;4.17;;;;;;;11.02;100.00;99689.84;5000696;28;20212;-81
2023/10/24 06:03:23;;;;;;;6.60;3.70;;;;;;;11.02;100.00;99677.38;5025285;28;20254;-81
2023/10/24 06:05:52;;;;;;;5.33;3.80;;;;;;;11.02;100.00;99674.72;5001045;28;20307;-81
2023/10/24 06:08:19;;;;;;;5.27;4.00;;;;;;;11.01;100.00;99664.16;5001215;28;20702;-81
2023/10/24 06:10:54;;;;;;;6.70;4.53;;;;;;;11.01;100.00;99669.50;5006298;28;20203;-81
2023/10/24 06:13:22;;;;;;;5.07;4.00;;;;;;;10.99;100.00;99669.63;5005274;28;20229;-81
2023/10/24 06:15:49;;;;;;;6.40;4.10;;;;;;;10.99;100.00;99674.09;4997060;28;20206;-81
2023/10/24 06:18:15;;;;;;;6.50;4.80;;;;;;;10.99;100.00;99674.94;5005064;28;20225;-81
2023/10/24 06:20:42;;;;;;;8.63;4.50;;;;;;;10.99;100.00;99677.59;5001626;28;20217;-81
2023/10/24 06:23:10;;;;;;;6.63;4.00;;;;;;;11.00;100.00;99676.63;5003787;28;20741;-81
2023/10/24 06:25:37;;;;;;;5.83;3.93;;;;;;;11.03;100.00;99680.88;5000737;28;20665;-81
2023/10/24 06:28:04;;;;;;;7.57;4.57;;;;;;;11.06;100.00;99680.63;4999600;28;20205;-80
2023/10/24 06:30:33;;;;;;;4.87;4.20;;;;;;;11.11;100.00;99683.75;5007774;28;20205;-81
2023/10/24 06:32:59;;;;;;;6.37;3.40;;;;;;;11.13;100.00;99687.16;5005020;28;20714;-81
2023/10/24 06:35:26;;;;;;;4.87;2.80;;;;;;;11.18;100.00;99684.13;5006264;28;20215;-81
2023/10/24 06:37:52;;;;;;;5.80;3.37;;;;;;;11.21;100.00;99697.19;5006049;28;20661;-81
2023/10/24 06:40:19;;;;;;;5.60;2.60;;;;;;;11.26;100.00;99695.03;5003419;28;20199;-81
2023/10/24 06:42:46;;;;;;;3.63;2.43;;;;;;;11.30;100.00;99688.44;5002077;28;20588;-81
2023/10/24 06:45:12;;;;;;;2.93;2.00;;;;;;;11.36;100.00;99677.28;5002717;28;20211;-80
2023/10/24 06:47:41;;;;;;;4.47;2.10;;;;;;;11.39;100.00;99687.72;5006513;28;20214;-81
2023/10/24 06:50:09;;;;;;;4.67;2.63;;;;;;;11.45;100.00;99705.88;5006357;28;20276;-81
2023/10/24 06:52:37;;;;;;;3.27;1.90;;;;;;;11.47;100.00;99694.09;5002219;28;20220;-81
2023/10/24 06:55:04;;;;;;;5.13;2.50;;;;;;;11.52;100.00;99692.88;5000819;28;20298;-81
2023/10/24 06:57:31;;;;;;;3.73;2.10;;;;;;;11.54;100.00;99693.59;5005495;28;20211;-81
2023/10/24 06:59:57;;;;;;;3.83;2.43;;;;;;;11.58;100.00;99693.22;5006269;28;20693;-81
2023/10/24 07:02:24;;;;;;;3.83;1.67;;;;;;;11.66;100.00;99687.22;5008680;28;20263;-81
2023/10/24 07:04:51;;;;;;;3.90;2.10;;;;;;;11.70;100.00;99676.19;5008294;28;20621;-81
2023/10/24 07:07:19;;;;;;;3.47;1.90;;;;;;;11.74;100.00;99672.28;5013546;28;20232;-81
2023/10/24 07:09:45;;;;;;;4.17;2.00;;;;;;;11.79;100.00;99670.13;5016503;28;20227;-81
2023/10/24 07:12:11;;;;;;;4.00;1.50;;;;;;;11.85;100.00;99674.09;5010801;28;20217;-81
2023/10/24 07:14:38;;;;;;;3.23;1.77;;;;;;;11.92;100.00;99685.09;5009665;28;20242;-81
2023/10/24 07:17:04;;;;;;;3.40;1.90;;;;;;;11.96;100.00;99679.38;5005047;28;20207;-81
2023/10/24 07:19:32;;;;;;;2.53;1.63;;;;;;;11.98;100.00;99679.25;5009681;28;20207;-80
2023/10/24 07:22:00;;;;;;;3.47;1.70;;;;;;;12.01;100.00;99668.31;5009758;28;20217;-81
2023/10/24 07:24:26;;;;;;;2.23;1.57;;;;;;;12.06;100.00;99655.41;5005507;28;20243;-81
2023/10/24 07:26:53;;;;;;;3.07;2.10;;;;;;;12.08;100.00;99654.31;5029672;28;20206;-81
2023/10/24 07:29:19;;;;;;;4.23;2.30;;;;;;;12.11;100.00;99653.22;5007589;28;20223;-81
2023/10/24 07:31:46;;;;;;;2.77;1.80;;;;;;;12.16;100.00;99661.69;5005067;28;20213;-80
2023/10/24 07:34:12;;;;;;;3.17;1.90;;;;;;;12.19;100.00;99653.38;5001685;28;20251;-81
2023/10/24 07:36:39;;;;;;;3.73;2.00;;;;;;;12.23;100.00;99645.97;5002144;28;20568;-81
2023/10/24 07:39:06;;;;;;;2.83;1.97;;;;;;;12.26;100.00;99643.03;5004425;28;20304;-81
2023/10/24 07:41:33;;;;;;;5.47;2.10;;;;;;;12.26;100.00;99651.91;5010877;28;20680;-80
2023/10/24 07:43:59;;;;;;;3.20;1.90;;;;;;;12.26;100.00;99646.56;5008989;28;20257;-81
2023/10/24 07:46:26;;;;;;;7.27;2.53;;;;;;;12.29;100.00;99648.13;5008102;28;20212;-81
2023/10/24 07:48:52;;;;;;;3.97;2.20;;;;;;;12.32;100.00;99651.38;5006396;28;20230;-80
2023/10/24 07:51:19;;;;;;;3.10;2.10;;;;;;;12.35;100.00;99651.13;5012895;28;20243;-81
2023/10/24 07:53:45;;;;;;;4.23;2.37;;;;;;;12.39;100.00;99652.53;5009132;28;20233;-82
2023/10/24 07:56:13;;;;;;;7.77;2.53;;;;;;;12.40;100.00;99645.34;5003404;28;20212;-81
2023/10/24 07:58:40;;;;;;;3.40;2.30;;;;;;;12.41;100.00;99650.56;5000201;28;20204;-81
2023/10/24 08:01:06;;;;;;;4.43;3.00;;;;;;;12.44;100.00;99652.97;5003255;28;20212;-81
2023/10/24 08:03:32;;;;;;;5.60;2.77;;;;;;;12.49;100.00;99652.59;5010818;28;20241;-80
2023/10/24 08:05:59;;;;;;;3.73;2.50;;;;;;;12.50;100.00;99654.28;5007985;28;20219;-82
2023/10/24 08:08:26;;;;;;;7.53;2.80;;;;;;;12.52;100.00;99653.16;5002918;28;20206;-81
2023/10/24 08:10:52;;;;;;;6.37;2.67;;;;;;;12.55;100.00;99637.81;5018302;28;20246;-81
2023/10/24 08:13:20;;;;;;;5.47;2.90;;;;;;;12.60;100.00;99624.91;5006936;28;20227;-81
2023/10/24 08:15:50;;;;;;;7.80;2.63;;;;;;;12.62;100.00;99631.81;5010672;28;20213;-81
2023/10/24 08:18:16;;;;;;;3.57;2.70;;;;;;;12.63;100.00;99630.84;5008187;28;20201;-80
2023/10/24 08:20:43;;;;;;;5.13;2.83;;;;;;;12.66;100.00;99640.41;5005990;28;20211;-81
2023/10/24 08:23:09;;;;;;;4.07;2.37;;;;;;;12.68;100.00;99652.66;5002657;28;20240;-81
2023/10/24 08:25:35;;;;;;;2.77;2.40;;;;;;;12.70;100.00;99652.53;5013047;28;20200;-81
2023/10/24 08:28:02;;;;;;;4.17;2.10;;;;;;;12.73;100.00;99645.06;5005289;28;20227;-81
2023/10/24 08:30:31;;;;;;;4.10;2.20;;;;;;;12.77;100.00;99641.16;5002907;28;20238;-81
2023/10/24 08:32:58;;;;;;;4.33;2.37;;;;;;;12.79;100.00;99647.22;5004999;28;20231;-81
2023/10/24 08:35:25;;;;;;;4.13;2.20;;;;;;;12.82;100.00;99644.28;5040136;28;20245;-81
2023/10/24 08:37:51;;;;;;;4.93;3.23;;;;;;;12.85;100.00;99651.19;5019585;28;20213;-82
2023/10/24 08:40:17;;;;;;;3.33;2.30;;;;;;;12.89;100.00;99644.59;5004874;28;20208;-81
2023/10/24 08:42:44;;;;;;;16.70;3.07;;;;;;;12.94;100.00;99652.16;5001442;28;20215;-81
2023/10/24 08:45:11;;;;;;;2.63;1.90;;;;;;;12.95;100.00;99648.53;5001185;28;20219;-82
2023/10/24 08:47:41;;;;;;;4.27;2.00;;;;;;;12.98;100.00;99659.78;5002245;28;20214;-81
2023/10/24 08:50:08;;;;;;;2.30;1.93;;;;;;;13.03;100.00;99662.91;4999451;28;20226;-81
2023/10/24 08:52:35;;;;;;;3.43;2.00;;;;;;;13.09;100.00;99659.66;5005169;28;20216;-81
2023/10/24 08:55:03;;;;;;;7.73;2.37;;;;;;;13.14;100.00;99659.25;5014330;28;20223;-81
2023/10/24 08:57:33;;;;;;;3.30;1.87;;;;;;;13.16;100.00;99663.53;5007709;28;20209;-81
2023/10/24 09:00:00;;;;;;;2.47;1.93;;;;;;;13.17;100.00;99659.88;5007646;28;20214;-82
2023/10/24 09:02:27;;;;;;;4.57;2.40;;;;;;;13.18;100.00;99664.25;5006264;28;20541;-82
2023/10/24 09:04:55;;;;;;;4.37;1.90;;;;;;;13.19;100.00;99660.59;5020559;28;20229;-82
2023/10/24 09:07:22;;;;;;;3.03;1.90;;;;;;;13.25;100.00;99661.88;5003662;28;20207;-81
2023/10/24 09:09:48;;;;;;;4.00;2.23;;;;;;;13.26;100.00;99654.66;5007097;28;20749;-81
2023/10/24 09:12:16;;;;;;;3.70;1.80;;;;;;;13.27;100.00;99654.53;5007045;28;20207;-81
2023/10/24 09:14:45;;;;;;;4.60;2.00;;;;;;;13.32;100.00;99652.28;5010323;28;20222;-81
2023/10/24 09:17:13;;;;;;;5.60;2.23;;;;;;;13.35;100.00;99645.81;5008096;28;20211;-81
2023/10/24 09:19:40;;;;;;;2.17;1.70;;;;;;;13.36;100.00;99636.81;5009244;28;20218;-81
2023/10/24 09:22:08;;;;;;;6.33;2.73;;;;;;;13.39;100.00;99623.16;5003100;28;20801;-81
2023/10/24 09:24:35;;;;;;;5.23;2.13;;;;;;;13.42;100.00;99620.22;5004455;28;20237;-81
2023/10/24 09:27:02;;;;;;;2.70;2.00;;;;;;;13.47;99.78;99624.16;5012181;28;20265;-81
2023/10/24 09:29:30;;;;;;;2.73;1.70;;;;;;;13.50;98.43;99626.53;5005289;28;20227;-81
2023/10/24 09:31:58;;;;;;;6.97;3.80;;;;;;;13.52;99.15;99642.47;5005522;28;20219;-80
2023/10/24 09:34:24;;;;;;;5.13;1.90;;;;;;;13.52;99.73;99655.84;5006729;28;20226;-82
2023/10/24 09:36:51;;;;;;;1.87;1.63;;;;;;;13.51;99.00;99659.50;5009689;28;20239;-80
2023/10/24 09:39:19;;;;;;;2.73;2.23;;;;;;;13.55;99.49;99667.09;5006138;28;20210;-80
2023/10/24 09:41:48;;;;;;;2.30;1.77;;;;;;;13.58;98.29;99670.50;5005417;28;20548;-80
2023/10/24 09:44:14;;;;;;;4.10;2.10;;;;;;;13.61;99.00;99664.88;5007454;28;20231;-81
2023/10/24 09:46:41;;;;;;;3.93;2.00;;;;;;;13.59;99.17;99670.34;4999145;28;20273;-80
2023/10/24 09:49:08;;;;;;;3.30;1.57;;;;;;;13.60;98.11;99663.16;5007257;28;20207;-81
2023/10/24 09:51:36;;;;;;;3.90;2.27;;;;;;;13.67;97.92;99670.47;5005685;28;20203;-81
2023/10/24 09:54:04;;;;;;;2.80;2.30;;;;;;;13.66;97.63;99678.63;5004422;28;20692;-80
2023/10/24 09:56:33;;;;;;;4.90;2.60;;;;;;;13.70;97.19;99683.59;4998302;28;20273;-80
2023/10/24 09:59:00;;;;;;;6.90;2.90;;;;;;;13.67;97.77;99683.00;5008594;28;20202;-81
2023/10/24 10:01:28;;;;;;;5.27;2.90;;;;;;;13.66;97.53;99674.13;5007953;28;20246;-81
2023/10/24 10:03:58;;;;;;;4.13;2.47;;;;;;;13.68;97.63;99669.50;5004795;28;20224;-80
2023/10/24 10:06:27;;;;;;;4.60;1.60;;;;;;;13.66;96.37;99660.75;5002698;28;20247;-81
2023/10/24 10:08:56;;;;;;;4.00;1.60;;;;;;;13.68;96.56;99664.13;5003691;28;20215;-80
2023/10/24 10:11:23;;;;;;;3.03;1.50;;;;;;;13.69;96.61;99654.28;5004749;28;20258;-82
2023/10/24 10:13:54;;;;;;;3.63;2.27;;;;;;;13.72;96.54;99648.66;5003987;28;20241;-81
2023/10/24 10:16:34;;;;;;;2.63;2.13;;;;;;;13.72;96.75;99654.00;5016530;28;20218;-81
2023/10/24 10:19:21;;;;;;;4.17;2.57;;;;;;;13.72;96.11;99643.31;5004792;28;20207;-81
2023/10/24 10:22:02;;;;;;;5.50;2.50;;;;;;;13.73;96.37;99645.00;5000288;28;20232;-81
2023/10/24 10:24:54;;;;;;;3.30;1.63;;;;;;;13.73;96.40;99640.50;5003185;28;20233;-81
2023/10/24 10:27:28;;;;;;;2.23;1.30;;;;;;;13.79;95.51;99626.53;5004132;28;20206;-81
2023/10/24 10:30:07;;;;;;;3.83;1.50;;;;;;;13.79;95.11;99628.38;5004633;28;20218;-81
2023/10/24 10:32:42;;;;;;;2.43;1.40;;;;;;;13.78;95.19;99627.53;5008131;28;20214;-81
2023/10/24 10:35:09;;;;;;;3.07;1.53;;;;;;;13.81;95.19;99624.56;5007189;28;20203;-80
2023/10/24 10:37:36;;;;;;;2.13;1.23;;;;;;;13.79;95.16;99629.19;5009164;28;20638;-81
2023/10/24 10:40:24;;;;;;;3.17;1.50;;;;;;;13.79;95.98;99623.84;5007656;28;20210;-80
2023/10/24 10:42:51;;;;;;;3.03;1.60;;;;;;;13.79;96.29;99621.16;5010297;28;21772;-81
2023/10/24 10:45:26;;;;;;;2.83;1.80;;;;;;;13.82;96.78;99620.03;5001100;28;20227;-81
2023/10/24 10:47:55;;;;;;;2.47;1.27;;;;;;;13.87;95.81;99613.28;5007843;28;20674;-82
2023/10/24 10:50:27;;;;;;;2.57;2.20;;;;;;;13.88;95.65;99611.44;5014600;28;20262;-81
2023/10/24 10:53:01;;;;;;;3.43;1.63;;;;;;;13.88;95.25;99606.09;5002425;28;20211;-81
2023/10/24 10:55:39;;;;;;;4.07;1.83;;;;;;;13.88;95.14;99617.66;5004015;28;20203;-81
2023/10/24 10:58:20;;;;;;;2.33;1.90;;;;;;;13.90;95.03;99610.31;5010500;28;20570;-81
2023/10/24 11:01:00;;;;;;;3.60;2.00;;;;;;;13.90;94.66;99601.44;5000953;28;20302;-82
2023/10/24 11:03:42;;;;;;;4.50;1.60;;;;;;;13.92;94.17;99606.66;5009813;28;20254;-81
2023/10/24 11:06:10;;;;;;;3.17;1.73;;;;;;;13.93;94.18;99603.00;5004903;28;20211;-81
2023/10/24 11:08:37;;;;;;;2.57;1.43;;;;;;;13.92;94.04;99607.50;5001335;28;20205;-81
2023/10/24 11:11:04;;;;;;;1.73;1.10;;;;;;;13.90;94.30;99596.94;5006533;28;20231;-81
2023/10/24 11:13:34;;;;;;;3.87;1.93;;;;;;;13.93;94.41;99611.03;5007152;28;20219;-81
2023/10/24 11:16:03;;;;;;;2.67;1.33;;;;;;;13.95;94.83;99609.91;5007005;28;20211;-81
2023/10/24 11:18:31;;;;;;;2.57;1.40;;;;;;;13.99;94.55;99602.41;5009699;28;20204;-82
2023/10/24 11:20:58;;;;;;;2.33;1.60;;;;;;;14.01;94.81;99595.06;5001826;28;20207;-80
2023/10/24 11:23:24;;;;;;;2.23;1.50;;;;;;;14.00;94.16;99601.41;5010709;28;20251;-81
2023/10/24 11:25:51;;;;;;;2.87;1.80;;;;;;;13.99;93.68;99589.03;5011897;28;20211;-81